MWLMINERAL WELLS RGNL
METARs for airports near MWL, sorted by distance:
N 0 nm 973' KMWL 172253Z 04010KT 10SM CLR 31/21 A2999
SE 23 nm 835' KGDJ 172055Z 00000KT A2999
NE 26 nm 863' KXBP 172255Z 11004KT 10SM CLR 32/20 A3000
E 31 nm 650' KNFW 172252Z 04004KT 10SM OVC130 32/21 A2998
NW 31 nm 1123' KRPH 172255Z VRB03KT 10SM FEW130 33/18 A2998
S 34 nm 1321' KSEP 172255Z 32011G16KT 7SM SCT030 SCT037 BKN049 25/22 A3006
E 35 nm 710' KFTW 172253Z 08004KT 10SM FEW050 31/22 A2997
NE 37 nm 1046' KLUD 172255Z 00000KT 10SM CLR 32/19 A2999
E 39 nm 723' KAFW 172253Z 11004KT 10SM FEW050 BKN110 BKN150 OVC250 31/22 A2997
E 40 nm 700' KFWS 172250Z 00000KT 10SM FEW020 29/23 A3000
SE 40 nm 854' KCPT 172255Z 05005KT 6SM HZ CLR 30/25 A3000
W 42 nm 1284' KBKD 172255Z 5SM VCTSHZ BKN060 OVC070 29/19 A3003
SW 43 nm 1467' KETN 172255Z 14006KT 7SM -RA BR 22/21 A3005
E 49 nm 628' KGKY 172253Z 08007KT 10SM FEW038 SCT050 SCT075 30/23 A2998
NE 50 nm 642' KDTO 172253Z 11004KT 10SM BKN110 31/22 A2998
E 51 nm 590' KGPM 172250Z 11006KT 10SM SCT033 SCT041 29/23 A3000
E 52 nm 606' KDFW 172253Z 09005KT 10SM FEW033 SCT090 BKN130 BKN180 OVC250 31/24 A2997
SW 54 nm 1711' KGZN 172240Z VRB05G17KT 6SM VCTS BR 22/21 A3003
SW 58 nm 1386' KMKN 172255Z 02003KT 28/24 A3004
E 60 nm 660' KRBD 172253Z 10008KT 10SM SCT080 SCT090 BKN120 26/23 A2999
E 61 nm 486' KDAL 172253Z 12007KT 020V130 10SM -RA FEW046 SCT090 BKN120 OVC250 28/24 A2998
E 61 nm 727' KJWY 172255Z VRB04KT 9SM BKN130 26/22 A3001
E 62 nm 644' KADS 172247Z 00000KT 10SM SCT023 28/23 A3000
SE 64 nm 685' KINJ 172255Z 08005KT 10SM CLR 29/24 A2998
S 67 nm 1304' KMNZ 172255Z 00000KT 10SM CLR 31/21 A3002
NE 67 nm 845' KGLE 172255Z 08005KT 10SM SCT050 32/19 A3001
N 68 nm 1003' KCWC 172255Z 02008KT 310V050 10SM CLR 34/18 A2999
E 68 nm 501' KLNC 172255Z 11003KT 10SM -RA SCT110 24/21 A3000
SW 74 nm 1386' KBWD 172255Z 04007KT CLR 28/23 A3003
N 75 nm 1019' KSPS 172252Z 01010KT 10SM FEW060 SCT100 SCT250 34/19 A2998
E 77 nm 446' KHQZ 172250Z 14004KT 10SM SCT050 BKN065 24/22 A2999
E 77 nm 588' KTKI 172253Z 16007KT 10SM SCT110 27/22 A2997
SE 81 nm 516' KACT 172251Z 01007KT 10SM FEW065 29/24 A2997
S 82 nm 905' KGOP 172255Z 01007KT 10SM FEW060 32/25 A2998
W 85 nm 1790' KABI 171852Z 01003KT 10SM CLR 36/18 A3006
SE 85 nm 470' KCNW 172255Z 01007KT 7SM OVC100 31/22 A2996
SE 86 nm 591' KPWG 172256Z 03006KT 10SM CLR 30/23 A2997
SW 88 nm 1696' KCOM 172256Z 10SM CLR 28/21 A3003
NE 89 nm 749' KGYI 172250Z 06005KT 10SM SCT100 29/22 A3000
E 90 nm 474' KTRL 172253Z 13005KT 10SM -RA SCT065 BKN090 OVC110 23/22 A2999
W 93 nm 1790' KDYS 172256Z 11011KT 10SM SCT075 35/17 A2998
SE 95 nm 448' KCRS 172253Z 05005KT 10SM -RA BKN120 26/22 A2999
TAFs for airports near MWL, sorted by distance:
E 31 nm 650' KNFW TAF KNFW 1723/1823 VRB06KT 9999 VCTS OVC130CB QNH2993INS
  TEMPO 1723/1803 VRB15G25KT 9000 TSRA OVC130CB
  BECMG 1803/1805 VRB06KT 9999 VCTS SCT050CB SCT120 QNH3002INS
  TEMPO 1803/1809 VRB15G25KT 9000 TSRA BR BKN050CB
  BECMG 1809/1811 VRB06KT 9000 -RA BR BKN010 BKN050 QNH3007INS
  BECMG 1815/1817 03012G20KT 9999 SCT033 QNH2999INS AUTOMATED SENSOR METWATCH 1804 TIL 1811 TX35/1822Z TN25/1813Z FN20070
E 35 nm 710' KFTW KFTW 172108Z 1721/1818 02006KT P6SM VCTS SCT050CB BKN120
  FM180000 01010KT P6SM BKN100
  FM180400 34007KT P6SM VCTS BKN060CB
  FM180900 01006KT P6SM BKN060
E 39 nm 723' KAFW TAF
  AMD KAFW 172108Z 1721/1818 02006KT P6SM VCTS SCT050CB BKN120
  FM180000 01010KT P6SM BKN100
  FM180400 34007KT P6SM VCTS BKN060CB
  FM180900 01006KT P6SM BKN060
E 49 nm 628' KGKY TAF
  AMD KGKY 172108Z 1721/1818 02006KT P6SM VCTS SCT050CB BKN120
  FM180000 01010KT P6SM BKN100
  FM180400 34007KT P6SM VCTS BKN060CB
  FM180900 01006KT P6SM BKN060
E 52 nm 606' KDFW KDFW 172108Z 1721/1824 02006KT P6SM VCTS SCT050CB BKN120
  FM180000 01010KT P6SM BKN100
  FM180400 34007KT P6SM VCTS BKN060CB
  FM180900 01006KT P6SM BKN060
E 61 nm 486' KDAL KDAL 172108Z 1721/1818 02006KT P6SM VCTS SCT050CB BKN120
  FM180000 01010KT P6SM BKN100
  FM180400 34007KT P6SM VCTS BKN060CB
  FM180900 01006KT P6SM BKN060
N 75 nm 1019' KSPS TAF KSPS 171720Z 1718/1818 03008KT P6SM SCT250
SE 81 nm 516' KACT TAF
  AMD KACT 172108Z 1721/1818 02010KT 6SM -TSRA BKN018 BKN050CB
  FM172200 02007KT P6SM VCTS SCT070CB
  FM180200 03012KT P6SM BKN070
  FM180800 29008KT P6SM VCTS BKN060CB
  FM181200 31010KT P6SM BKN080
W 85 nm 1790' KABI TAF KABI 171720Z 1718/1818 VRB05KT P6SM VCTS SCT050CB
  FM180000 17007KT P6SM SCT170
  FM180300 VRB04KT P6SM BKN110 PROB30 1806/1812 P6SM -TSRA BKN050CB
  FM181700 03007KT P6SM SCT140
W 93 nm 1790' KDYS TAF KDYS 171100Z 1711/1817 23012KT 9999 FEW100 QNH3000INS
  BECMG 1714/1715 24010G15KT 9999 FEW100 QNH2995INS
  BECMG 1720/1721 VRB12G18KT 9000 -SHRA VCTS BKN060CB QNH2992INS
  TEMPO 1721/1723 VRB20G30KT 8000 -TSRA BKN030CB
  BECMG 1800/1801 03012KT 9000 -SHRA BKN020 QNH2995INS
  BECMG 1813/1814 36012G18KT 9999 NSW BKN015 QNH3012INS TX37/1721Z TN23/1811Z

Shortcut to this page: http://wxbay.com.

Data may contain errors.